createdAt,value
2018-03-04T00:00:30.638Z,0.00
2018-03-04T00:01:30.653Z,0.00
2018-03-04T00:02:30.645Z,0.00
2018-03-04T00:03:30.645Z,0.00
2018-03-04T00:04:30.649Z,0.00
2018-03-04T00:05:30.651Z,0.00
2018-03-04T00:06:30.657Z,0.00
2018-03-04T00:07:30.655Z,0.00
2018-03-04T00:08:30.659Z,0.00
2018-03-04T00:09:30.662Z,0.00
2018-03-04T00:10:30.663Z,0.00
2018-03-04T00:11:30.665Z,0.00
2018-03-04T00:12:30.669Z,0.00
2018-03-04T00:13:30.671Z,0.00
2018-03-04T00:14:30.674Z,0.00
2018-03-04T00:15:30.677Z,0.00
2018-03-04T00:16:30.683Z,0.00
2018-03-04T00:17:30.680Z,0.00
2018-03-04T00:18:30.683Z,0.00
2018-03-04T00:19:30.685Z,0.00
2018-03-04T00:20:30.687Z,0.00
2018-03-04T00:21:30.690Z,0.00
2018-03-04T00:22:30.693Z,0.00
2018-03-04T00:23:30.696Z,0.00
2018-03-04T00:24:30.697Z,0.00
2018-03-04T00:25:30.700Z,0.00
2018-03-04T00:26:30.703Z,0.00
2018-03-04T00:27:30.704Z,0.00
2018-03-04T00:28:30.706Z,0.00
2018-03-04T00:29:30.709Z,0.00
2018-03-04T00:30:30.712Z,0.00
2018-03-04T00:31:30.713Z,0.00
2018-03-04T00:32:30.721Z,0.00
2018-03-04T00:33:30.718Z,0.00
2018-03-04T00:34:30.744Z,0.00
2018-03-04T00:35:30.723Z,0.00
2018-03-04T00:36:30.725Z,0.00
2018-03-04T00:37:30.728Z,0.00
2018-03-04T00:38:30.728Z,0.00
2018-03-04T00:39:30.730Z,0.00
2018-03-04T00:40:30.733Z,0.00
2018-03-04T00:41:30.734Z,0.00
2018-03-04T00:42:30.738Z,0.00
2018-03-04T00:43:30.740Z,0.00
2018-03-04T00:44:30.741Z,0.00
2018-03-04T00:45:30.744Z,0.00
2018-03-04T00:46:30.747Z,0.00
2018-03-04T00:47:30.748Z,0.00
2018-03-04T00:48:30.750Z,0.00
2018-03-04T00:49:30.753Z,0.00
2018-03-04T00:50:30.755Z,0.00
2018-03-04T00:51:30.756Z,0.00
2018-03-04T00:52:30.758Z,0.00
2018-03-04T00:53:30.761Z,0.00
2018-03-04T00:54:30.761Z,0.00
2018-03-04T00:55:30.762Z,0.00
2018-03-04T00:56:30.766Z,0.00
2018-03-04T00:57:30.766Z,0.00
2018-03-04T00:58:30.771Z,0.00
2018-03-04T00:59:30.774Z,0.00
2018-03-04T01:00:30.773Z,0.00
2018-03-04T01:01:30.775Z,0.00
2018-03-04T01:02:30.777Z,0.00
2018-03-04T01:03:30.778Z,0.00
2018-03-04T01:04:30.780Z,0.00
2018-03-04T01:05:30.781Z,0.00
2018-03-04T01:06:30.788Z,0.00
2018-03-04T01:07:30.787Z,0.00
2018-03-04T01:08:30.787Z,0.00
2018-03-04T01:09:30.790Z,0.00
2018-03-04T01:10:30.791Z,0.00
2018-03-04T01:11:30.793Z,0.00
2018-03-04T01:12:30.793Z,0.00
2018-03-04T01:13:30.796Z,0.00
2018-03-04T01:14:30.798Z,0.00
2018-03-04T01:15:30.800Z,0.00
2018-03-04T01:16:30.802Z,0.00
2018-03-04T01:17:30.802Z,0.00
2018-03-04T01:18:30.805Z,0.00
2018-03-04T01:19:30.807Z,0.00
2018-03-04T01:20:30.809Z,0.00
2018-03-04T01:21:30.810Z,0.00
2018-03-04T01:22:30.811Z,0.00
2018-03-04T01:23:30.813Z,0.00
2018-03-04T01:24:30.815Z,0.00
2018-03-04T01:25:30.816Z,0.00
2018-03-04T01:26:30.819Z,0.00
2018-03-04T01:27:30.820Z,0.00
2018-03-04T01:28:30.821Z,0.00
2018-03-04T01:29:30.823Z,0.00
2018-03-04T01:30:30.824Z,0.00
2018-03-04T01:31:30.826Z,0.00
2018-03-04T01:32:30.828Z,0.00
2018-03-04T01:33:30.830Z,0.00
2018-03-04T01:34:30.832Z,0.00
2018-03-04T01:35:30.832Z,0.00
2018-03-04T01:36:30.833Z,0.00
2018-03-04T01:37:30.840Z,0.00
2018-03-04T01:38:30.837Z,0.00
2018-03-04T01:39:30.839Z,0.00
2018-03-04T01:40:30.839Z,0.00
2018-03-04T01:41:30.844Z,0.00
2018-03-04T01:42:30.844Z,0.00
2018-03-04T01:43:30.843Z,0.00
2018-03-04T01:44:30.846Z,0.00
2018-03-04T01:45:30.848Z,0.00
2018-03-04T01:46:30.849Z,0.00
2018-03-04T01:47:30.852Z,0.00
2018-03-04T01:48:30.851Z,0.00
2018-03-04T01:49:30.853Z,0.00
2018-03-04T01:50:30.855Z,0.00
2018-03-04T01:51:30.855Z,0.00
2018-03-04T01:52:30.858Z,0.00
2018-03-04T01:53:30.860Z,0.00
2018-03-04T01:54:30.862Z,0.00
2018-03-04T01:55:30.861Z,0.00
2018-03-04T01:56:30.862Z,0.00
2018-03-04T01:57:30.864Z,0.00
2018-03-04T01:58:30.866Z,0.00
2018-03-04T01:59:30.867Z,0.00
2018-03-04T02:00:30.868Z,0.00
2018-03-04T02:01:30.874Z,0.00
2018-03-04T02:02:30.872Z,0.00
2018-03-04T02:03:30.873Z,0.00
2018-03-04T02:04:30.873Z,0.00
2018-03-04T02:05:30.874Z,0.00
2018-03-04T02:06:30.877Z,0.00
2018-03-04T02:07:30.877Z,0.00
2018-03-04T02:08:30.881Z,0.00
2018-03-04T02:09:30.882Z,0.00
2018-03-04T02:10:30.882Z,0.00
2018-03-04T02:11:30.883Z,0.00
2018-03-04T02:12:30.886Z,0.00
2018-03-04T02:13:30.885Z,0.00
2018-03-04T02:14:30.887Z,0.00
2018-03-04T02:15:30.888Z,0.00
2018-03-04T02:16:30.889Z,0.00
2018-03-04T02:17:30.896Z,0.00
2018-03-04T02:18:30.892Z,0.00
2018-03-04T02:19:30.893Z,0.00
2018-03-04T02:20:30.894Z,0.00
2018-03-04T02:21:30.896Z,0.00
2018-03-04T02:22:30.897Z,0.00
2018-03-04T02:23:30.897Z,0.00
2018-03-04T02:24:30.899Z,0.00
2018-03-04T02:25:30.901Z,0.00
2018-03-04T02:26:30.902Z,0.00
2018-03-04T02:27:30.902Z,0.00
2018-03-04T02:28:30.903Z,0.00
2018-03-04T02:29:30.904Z,0.00
2018-03-04T02:30:30.908Z,0.00
2018-03-04T02:31:30.908Z,0.00
2018-03-04T02:32:30.909Z,0.00
2018-03-04T02:33:30.910Z,0.00
2018-03-04T02:34:30.912Z,0.00
2018-03-04T02:35:30.913Z,0.00
2018-03-04T02:36:30.964Z,0.00
2018-03-04T02:37:30.916Z,0.00
2018-03-04T02:38:30.916Z,0.00
2018-03-04T02:39:30.915Z,0.00
2018-03-04T02:40:30.919Z,0.00
2018-03-04T02:41:30.917Z,0.00
2018-03-04T02:42:30.922Z,0.00
2018-03-04T02:43:30.921Z,0.00
2018-03-04T02:44:30.921Z,0.00
2018-03-04T02:45:30.923Z,0.00
2018-03-04T02:46:30.924Z,0.00
2018-03-04T02:47:30.924Z,0.00
2018-03-04T02:48:30.926Z,0.00
2018-03-04T02:49:30.930Z,0.00
2018-03-04T02:50:30.929Z,0.00
2018-03-04T02:51:30.936Z,0.00
2018-03-04T02:52:30.930Z,0.00
2018-03-04T02:53:30.943Z,0.00
2018-03-04T02:54:30.932Z,0.00
2018-03-04T02:55:30.933Z,0.00
2018-03-04T02:56:30.935Z,0.00
2018-03-04T02:57:30.934Z,0.00
2018-03-04T02:58:30.936Z,0.00
2018-03-04T02:59:30.935Z,0.00
2018-03-04T03:00:30.938Z,0.00
2018-03-04T03:01:30.939Z,0.00
2018-03-04T03:02:30.942Z,0.00
2018-03-04T03:03:30.940Z,0.00
2018-03-04T03:04:30.944Z,0.00
2018-03-04T03:05:30.942Z,0.00
2018-03-04T03:06:30.944Z,0.00
2018-03-04T03:07:30.943Z,0.00
2018-03-04T03:08:30.944Z,0.00
2018-03-04T03:09:30.945Z,0.00
2018-03-04T03:10:30.947Z,0.00
2018-03-04T03:11:30.946Z,0.00
2018-03-04T03:12:30.948Z,0.00
2018-03-04T03:13:30.954Z,0.00
2018-03-04T03:14:30.951Z,0.00
2018-03-04T03:15:30.950Z,0.00
2018-03-04T03:16:30.951Z,0.00
2018-03-04T03:17:30.953Z,0.00
2018-03-04T03:18:30.956Z,0.00
2018-03-04T03:19:30.955Z,0.00
2018-03-04T03:20:30.955Z,0.00
2018-03-04T03:21:30.958Z,0.00
2018-03-04T03:22:30.957Z,0.00
2018-03-04T03:23:30.956Z,0.00
2018-03-04T03:24:30.958Z,0.00
2018-03-04T03:25:30.959Z,0.00
2018-03-04T03:26:30.959Z,0.00
2018-03-04T03:27:30.959Z,0.00
2018-03-04T03:28:30.961Z,0.00
2018-03-04T03:29:30.961Z,0.00
2018-03-04T03:30:30.963Z,0.00
2018-03-04T03:31:30.968Z,0.00
2018-03-04T03:32:30.964Z,0.00
2018-03-04T03:33:30.965Z,0.00
2018-03-04T03:34:30.964Z,0.00
2018-03-04T03:35:30.965Z,0.00
2018-03-04T03:36:30.965Z,0.00
2018-03-04T03:37:30.967Z,0.00
2018-03-04T03:38:30.968Z,0.00
2018-03-04T03:39:30.968Z,0.00
2018-03-04T03:40:30.972Z,0.00
2018-03-04T03:41:30.970Z,0.00
2018-03-04T03:42:30.970Z,0.00
2018-03-04T03:43:30.971Z,0.00
2018-03-04T03:44:30.972Z,0.00
2018-03-04T03:45:30.973Z,0.00
2018-03-04T03:46:30.974Z,0.00
2018-03-04T03:47:30.973Z,0.00
2018-03-04T03:48:30.974Z,0.00
2018-03-04T03:49:30.979Z,0.00
2018-03-04T03:50:30.977Z,0.00
2018-03-04T03:51:30.977Z,0.00
2018-03-04T03:52:30.980Z,0.00
2018-03-04T03:53:30.978Z,0.00
2018-03-04T03:54:30.978Z,0.00
2018-03-04T03:55:30.979Z,0.00
2018-03-04T03:56:30.980Z,0.00
2018-03-04T03:57:30.981Z,0.00
2018-03-04T03:58:30.980Z,0.00
2018-03-04T03:59:30.981Z,0.00
2018-03-04T04:00:30.984Z,0.00
2018-03-04T04:01:30.984Z,0.00
2018-03-04T04:02:30.984Z,0.00
2018-03-04T04:03:30.985Z,0.00
2018-03-04T04:04:30.984Z,0.00
2018-03-04T04:05:30.985Z,0.00
2018-03-04T04:06:30.988Z,0.00
2018-03-04T04:07:30.986Z,0.00
2018-03-04T04:08:30.987Z,0.00
2018-03-04T04:09:30.988Z,0.00
2018-03-04T04:10:30.988Z,0.00
2018-03-04T04:11:30.989Z,0.00
2018-03-04T04:12:30.990Z,0.00
2018-03-04T04:13:30.992Z,0.00
2018-03-04T04:14:30.990Z,0.00
2018-03-04T04:15:30.993Z,0.00
2018-03-04T04:16:30.991Z,0.00
2018-03-04T04:17:30.992Z,0.00
2018-03-04T04:18:30.992Z,0.00
2018-03-04T04:19:30.993Z,0.00
2018-03-04T04:20:30.994Z,0.00
2018-03-04T04:21:30.999Z,0.00
2018-03-04T04:22:30.996Z,0.00
2018-03-04T04:23:30.997Z,0.00
2018-03-04T04:24:30.997Z,0.00
2018-03-04T04:25:30.999Z,0.00
2018-03-04T04:26:30.998Z,0.00
2018-03-04T04:27:30.997Z,0.00
2018-03-04T04:28:30.997Z,0.00
2018-03-04T04:29:30.999Z,0.00
2018-03-04T04:30:31.001Z,0.00
2018-03-04T04:31:31.000Z,0.00
2018-03-04T04:32:31.001Z,0.00
2018-03-04T04:33:31.002Z,0.00
2018-03-04T04:34:31.002Z,0.00
2018-03-04T04:35:31.002Z,0.00
2018-03-04T04:36:31.006Z,0.00
2018-03-04T04:37:31.005Z,0.00
2018-03-04T04:38:31.010Z,0.00
2018-03-04T04:39:31.006Z,0.00
2018-03-04T04:40:31.005Z,0.00
2018-03-04T04:41:31.006Z,0.00
2018-03-04T04:42:31.006Z,0.00
2018-03-04T04:43:31.007Z,0.00
2018-03-04T04:44:31.008Z,0.00
2018-03-04T04:45:31.014Z,0.00
2018-03-04T04:46:31.010Z,0.00
2018-03-04T04:47:31.011Z,0.00
2018-03-04T04:48:31.011Z,0.00
2018-03-04T04:49:31.013Z,0.00
2018-03-04T04:50:31.011Z,0.00
2018-03-04T04:51:31.012Z,0.00
2018-03-04T04:52:31.013Z,0.00
2018-03-04T04:53:31.012Z,0.00
2018-03-04T04:54:31.018Z,0.00
2018-03-04T04:55:31.014Z,0.00
2018-03-04T04:56:31.015Z,0.00
2018-03-04T04:57:31.014Z,0.00
2018-03-04T04:58:31.015Z,0.00
2018-03-04T04:59:31.016Z,0.00
2018-03-04T05:00:31.017Z,0.00
2018-03-04T05:01:31.016Z,0.00
2018-03-04T05:02:31.023Z,0.00
2018-03-04T05:03:31.017Z,0.00
2018-03-04T05:04:31.019Z,0.00
2018-03-04T05:05:31.024Z,0.00
2018-03-04T05:06:31.020Z,0.00
2018-03-04T05:07:31.020Z,0.00
2018-03-04T05:08:31.020Z,0.00
2018-03-04T05:09:31.021Z,0.00
2018-03-04T05:10:31.020Z,0.00
2018-03-04T05:11:31.021Z,0.00
2018-03-04T05:12:31.022Z,0.00
2018-03-04T05:13:31.026Z,0.00
2018-03-04T05:14:31.022Z,0.00
2018-03-04T05:15:31.025Z,4.00
2018-03-04T05:16:31.022Z,4.00
2018-03-04T05:17:31.025Z,0.00
2018-03-04T05:18:31.028Z,0.00
2018-03-04T05:19:31.027Z,0.00
2018-03-04T05:20:31.026Z,0.00
2018-03-04T05:21:31.027Z,0.00
2018-03-04T05:22:31.028Z,0.00
2018-03-04T05:23:31.026Z,0.00
2018-03-04T05:24:31.027Z,0.00
2018-03-04T05:25:31.028Z,0.00
2018-03-04T05:26:31.030Z,0.00
2018-03-04T05:27:31.031Z,0.00
2018-03-04T05:28:31.031Z,0.00
2018-03-04T05:29:31.030Z,0.00
2018-03-04T05:30:31.032Z,0.00
2018-03-04T05:31:31.033Z,0.00
2018-03-04T05:32:31.033Z,0.00
2018-03-04T05:33:31.033Z,0.00
2018-03-04T05:34:31.035Z,0.00
2018-03-04T05:35:31.036Z,0.00
2018-03-04T05:36:31.037Z,0.00
2018-03-04T05:37:31.039Z,0.00
2018-03-04T05:38:31.040Z,0.00
2018-03-04T05:39:31.039Z,0.00
2018-03-04T05:40:31.041Z,0.00
2018-03-04T05:41:31.042Z,0.00
2018-03-04T05:42:31.044Z,0.00
2018-03-04T05:43:31.045Z,0.00
2018-03-04T05:44:31.046Z,0.00
2018-03-04T05:45:31.047Z,0.00
2018-03-04T05:46:31.049Z,0.00
2018-03-04T05:47:31.050Z,0.00
2018-03-04T05:48:31.050Z,0.00
2018-03-04T05:49:31.051Z,0.00
2018-03-04T05:50:31.054Z,0.00
2018-03-04T05:51:31.054Z,0.00
2018-03-04T05:52:31.054Z,0.00
2018-03-04T05:53:31.057Z,0.00
2018-03-04T05:54:31.058Z,0.00
2018-03-04T05:55:31.063Z,0.00
2018-03-04T05:56:31.060Z,4.00
2018-03-04T05:57:31.065Z,4.00
2018-03-04T05:58:31.063Z,4.00
2018-03-04T05:59:31.064Z,0.00
2018-03-04T06:00:31.066Z,0.00
2018-03-04T06:01:31.068Z,0.00
2018-03-04T06:02:31.070Z,0.00
2018-03-04T06:03:31.071Z,4.00
2018-03-04T06:04:31.073Z,4.00
2018-03-04T06:05:31.074Z,4.00
2018-03-04T06:06:31.077Z,4.00
2018-03-04T06:07:31.076Z,4.00
2018-03-04T06:08:31.080Z,4.00
2018-03-04T06:09:31.081Z,4.00
2018-03-04T06:10:31.085Z,8.00
2018-03-04T06:11:31.085Z,4.00
2018-03-04T06:12:31.085Z,4.00
2018-03-04T06:13:31.089Z,4.00
2018-03-04T06:14:31.092Z,8.00
2018-03-04T06:15:31.093Z,8.00
2018-03-04T06:16:31.094Z,8.00
2018-03-04T06:17:31.096Z,4.00
2018-03-04T06:18:31.098Z,4.00
2018-03-04T06:19:31.100Z,4.00
2018-03-04T06:20:31.102Z,4.00
2018-03-04T06:21:31.104Z,4.00
2018-03-04T06:22:31.106Z,8.00
2018-03-04T06:23:31.108Z,8.00
2018-03-04T06:24:31.110Z,8.00
2018-03-04T06:25:31.111Z,8.00
2018-03-04T06:26:31.115Z,12.00
2018-03-04T06:27:31.115Z,8.00
2018-03-04T06:28:31.124Z,12.00
2018-03-04T06:29:31.120Z,12.00
2018-03-04T06:30:31.124Z,12.00
2018-03-04T06:31:31.128Z,12.00
2018-03-04T06:32:31.128Z,12.00
2018-03-04T06:33:31.130Z,16.00
2018-03-04T06:34:31.131Z,16.00
2018-03-04T06:35:31.134Z,12.00
2018-03-04T06:36:31.136Z,12.00
2018-03-04T06:37:31.139Z,12.00
2018-03-04T06:38:31.142Z,16.00
2018-03-04T06:39:31.144Z,16.00
2018-03-04T06:40:31.146Z,20.00
2018-03-04T06:41:31.159Z,24.00
2018-03-04T06:42:31.152Z,20.00
2018-03-04T06:43:31.152Z,24.00
2018-03-04T06:44:31.156Z,28.00
2018-03-04T06:45:31.159Z,32.00
2018-03-04T06:46:31.162Z,32.00
2018-03-04T06:47:31.163Z,32.00
2018-03-04T06:48:31.167Z,36.00
2018-03-04T06:49:31.169Z,36.00
2018-03-04T06:50:31.174Z,40.00
2018-03-04T06:51:31.175Z,44.00
2018-03-04T06:52:31.176Z,44.00
2018-03-04T06:53:31.180Z,48.00
2018-03-04T06:54:31.183Z,48.00
2018-03-04T06:55:31.188Z,52.00
2018-03-04T06:56:31.188Z,56.00
2018-03-04T06:57:31.191Z,52.00
2018-03-04T06:58:31.194Z,56.00
2018-03-04T06:59:31.196Z,60.00
2018-03-04T07:00:31.200Z,60.00
2018-03-04T07:01:31.201Z,56.00
2018-03-04T07:02:31.208Z,60.00
2018-03-04T07:03:31.208Z,60.00
2018-03-04T07:04:31.211Z,64.00
2018-03-04T07:05:31.215Z,64.00
2018-03-04T07:06:31.217Z,68.00
2018-03-04T07:07:31.219Z,68.00
2018-03-04T07:08:31.223Z,68.00
2018-03-04T07:09:31.228Z,68.00
2018-03-04T07:10:31.241Z,72.00
2018-03-04T07:11:31.231Z,72.00
2018-03-04T07:12:31.234Z,76.00
2018-03-04T07:13:31.237Z,76.00
2018-03-04T07:14:31.240Z,76.00
2018-03-04T07:15:31.242Z,72.00
2018-03-04T07:16:31.245Z,72.00
2018-03-04T07:17:31.249Z,72.00
2018-03-04T07:18:31.257Z,72.00
2018-03-04T07:19:31.254Z,72.00
2018-03-04T07:20:31.258Z,68.00
2018-03-04T07:21:31.262Z,68.00
2018-03-04T07:22:31.266Z,64.00
2018-03-04T07:23:31.305Z,64.00
2018-03-04T07:24:31.275Z,68.00
2018-03-04T07:25:31.274Z,68.00
2018-03-04T07:26:31.276Z,68.00
2018-03-04T07:27:31.281Z,72.00
2018-03-04T07:28:31.283Z,76.00
2018-03-04T07:29:31.288Z,76.00
2018-03-04T07:30:31.290Z,80.00
2018-03-04T07:31:31.293Z,80.00
2018-03-04T07:32:31.297Z,80.00
2018-03-04T07:33:31.299Z,84.00
2018-03-04T07:34:31.303Z,84.00
2018-03-04T07:35:31.305Z,92.00
2018-03-04T07:36:31.311Z,92.00
2018-03-04T07:37:31.312Z,92.00
2018-03-04T07:38:31.315Z,96.00
2018-03-04T07:39:31.320Z,92.00
2018-03-04T07:40:31.322Z,96.00
2018-03-04T07:41:31.332Z,100.00
2018-03-04T07:42:31.330Z,100.00
2018-03-04T07:43:31.332Z,104.00
2018-03-04T07:44:31.337Z,108.00
2018-03-04T07:45:31.341Z,108.00
2018-03-04T07:46:31.344Z,108.00
2018-03-04T07:47:31.348Z,108.00
2018-03-04T07:48:31.350Z,112.00
2018-03-04T07:49:31.354Z,116.00
2018-03-04T07:50:31.358Z,116.00
2018-03-04T07:51:31.361Z,120.00
2018-03-04T07:52:31.423Z,124.00
2018-03-04T07:53:31.368Z,124.00
2018-03-04T07:54:31.370Z,120.00
2018-03-04T07:55:31.375Z,120.00
2018-03-04T07:56:31.378Z,120.00
2018-03-04T07:57:31.381Z,124.00
2018-03-04T07:58:31.388Z,124.00
2018-03-04T07:59:31.393Z,132.00
2018-03-04T08:00:31.392Z,132.00
2018-03-04T08:01:31.396Z,132.00
2018-03-04T08:02:31.402Z,132.00
2018-03-04T08:03:31.404Z,136.00
2018-03-04T08:04:31.409Z,136.00
2018-03-04T08:05:31.412Z,132.00
2018-03-04T08:06:31.417Z,124.00
2018-03-04T08:07:31.417Z,120.00
2018-03-04T08:08:31.421Z,120.00
2018-03-04T08:09:31.427Z,120.00
2018-03-04T08:10:31.429Z,120.00
2018-03-04T08:11:31.441Z,124.00
2018-03-04T08:12:31.437Z,124.00
2018-03-04T08:13:31.442Z,132.00
2018-03-04T08:14:31.445Z,140.00
2018-03-04T08:15:31.449Z,152.00
2018-03-04T08:16:31.453Z,168.00
2018-03-04T08:17:31.458Z,188.00
2018-03-04T08:18:31.516Z,204.00
2018-03-04T08:19:31.466Z,212.00
2018-03-04T08:20:31.468Z,224.00
2018-03-04T08:21:31.473Z,328.00
2018-03-04T08:22:31.477Z,324.00
2018-03-04T08:23:31.496Z,320.00
2018-03-04T08:24:31.485Z,312.00
2018-03-04T08:25:31.488Z,304.00
2018-03-04T08:26:31.496Z,304.00
2018-03-04T08:27:31.494Z,308.00
2018-03-04T08:28:31.509Z,320.00
2018-03-04T08:29:31.504Z,300.00
2018-03-04T08:30:31.508Z,284.00
2018-03-04T08:31:31.510Z,272.00
2018-03-04T08:32:31.516Z,276.00
2018-03-04T08:33:31.521Z,288.00
2018-03-04T08:34:31.575Z,316.00
2018-03-04T08:35:31.527Z,340.00
2018-03-04T08:36:31.535Z,364.00
2018-03-04T08:37:31.537Z,380.00
2018-03-04T08:38:31.541Z,396.00
2018-03-04T08:39:31.552Z,412.00
2018-03-04T08:40:31.550Z,424.00
2018-03-04T08:41:31.554Z,424.00
2018-03-04T08:42:31.558Z,428.00
2018-03-04T08:43:31.562Z,412.00
2018-03-04T08:44:31.566Z,392.00
2018-03-04T08:45:31.575Z,384.00
2018-03-04T08:46:31.580Z,396.00
2018-03-04T08:47:31.579Z,436.00
2018-03-04T08:48:31.583Z,464.00
2018-03-04T08:49:31.588Z,460.00
2018-03-04T08:50:31.594Z,468.00
2018-03-04T08:51:31.597Z,480.00
2018-03-04T08:52:31.602Z,500.00
2018-03-04T08:53:31.607Z,508.00
2018-03-04T08:54:31.612Z,516.00
2018-03-04T08:55:31.617Z,512.00
2018-03-04T08:56:31.623Z,520.00
2018-03-04T08:57:31.626Z,508.00
2018-03-04T08:58:31.631Z,544.00
2018-03-04T08:59:31.635Z,564.00
2018-03-04T09:00:31.641Z,540.00
2018-03-04T09:01:31.645Z,512.00
2018-03-04T09:02:31.648Z,544.00
2018-03-04T09:03:31.711Z,564.00
2018-03-04T09:04:31.659Z,540.00
2018-03-04T09:05:31.666Z,524.00
2018-03-04T09:06:31.668Z,528.00
2018-03-04T09:07:31.672Z,536.00
2018-03-04T09:08:31.680Z,556.00
2018-03-04T09:09:31.739Z,552.00
2018-03-04T09:10:31.688Z,512.00
2018-03-04T09:11:31.692Z,452.00
2018-03-04T09:12:31.698Z,376.00
2018-03-04T09:13:31.702Z,372.00
2018-03-04T09:14:31.708Z,404.00
2018-03-04T09:15:31.714Z,400.00
2018-03-04T09:16:31.719Z,384.00
2018-03-04T09:17:31.721Z,336.00
2018-03-04T09:18:31.731Z,296.00
2018-03-04T09:19:31.731Z,300.00
2018-03-04T09:20:31.736Z,296.00
2018-03-04T09:21:31.742Z,316.00
2018-03-04T09:22:31.746Z,328.00
2018-03-04T09:23:31.751Z,344.00
2018-03-04T09:24:31.755Z,356.00
2018-03-04T09:25:31.763Z,364.00
2018-03-04T09:26:31.767Z,364.00
2018-03-04T09:27:31.770Z,376.00
2018-03-04T09:28:31.776Z,396.00
2018-03-04T09:29:31.780Z,428.00
2018-03-04T09:30:31.787Z,424.00
2018-03-04T09:31:31.790Z,428.00
2018-03-04T09:32:31.801Z,448.00
2018-03-04T09:33:31.804Z,488.00
2018-03-04T09:34:31.806Z,512.00
2018-03-04T09:35:31.810Z,524.00
2018-03-04T09:36:31.816Z,568.00
2018-03-04T09:37:31.821Z,616.00
2018-03-04T09:38:31.851Z,608.00
2018-03-04T09:39:31.831Z,592.00
2018-03-04T09:40:31.836Z,576.00
2018-03-04T09:41:31.840Z,564.00
2018-03-04T09:42:31.846Z,540.00
2018-03-04T09:43:31.849Z,540.00
2018-03-04T09:44:31.856Z,564.00
2018-03-04T09:45:31.891Z,548.00
2018-03-04T09:46:31.866Z,556.00
2018-03-04T09:47:31.871Z,564.00
2018-03-04T09:48:31.894Z,568.00
2018-03-04T09:49:31.881Z,560.00
2018-03-04T09:50:31.888Z,568.00
2018-03-04T09:51:31.891Z,572.00
2018-03-04T09:52:31.896Z,572.00
2018-03-04T09:53:31.903Z,580.00
2018-03-04T09:54:31.908Z,580.00
2018-03-04T09:55:31.913Z,568.00
2018-03-04T09:56:31.916Z,556.00
2018-03-04T09:57:31.922Z,544.00
2018-03-04T09:58:31.927Z,520.00
2018-03-04T09:59:31.933Z,476.00
2018-03-04T10:00:31.937Z,452.00
2018-03-04T10:01:31.944Z,432.00
2018-03-04T10:02:31.949Z,404.00
2018-03-04T10:03:31.952Z,376.00
2018-03-04T10:04:31.959Z,364.00
2018-03-04T10:05:31.964Z,356.00
2018-03-04T10:06:31.970Z,396.00
2018-03-04T10:07:31.973Z,472.00
2018-03-04T10:08:31.980Z,516.00
2018-03-04T10:09:31.987Z,504.00
2018-03-04T10:10:31.989Z,420.00
2018-03-04T10:11:31.995Z,412.00
2018-03-04T10:12:32.000Z,392.00
2018-03-04T10:13:32.006Z,412.00
2018-03-04T10:14:32.015Z,468.00
2018-03-04T10:15:32.015Z,492.00
2018-03-04T10:16:32.020Z,472.00
2018-03-04T10:17:32.025Z,472.00
2018-03-04T10:18:32.032Z,496.00
2018-03-04T10:19:32.035Z,544.00
2018-03-04T10:20:32.042Z,608.00
2018-03-04T10:21:32.047Z,612.00
2018-03-04T10:22:32.054Z,532.00
2018-03-04T10:23:32.058Z,480.00
2018-03-04T10:24:32.061Z,472.00
2018-03-04T10:25:32.071Z,520.00
2018-03-04T10:26:32.074Z,556.00
2018-03-04T10:27:32.078Z,608.00
2018-03-04T10:28:32.086Z,688.00
2018-03-04T10:29:32.090Z,688.00
2018-03-04T10:30:32.096Z,680.00
2018-03-04T10:31:32.147Z,692.00
2018-03-04T10:32:32.110Z,680.00
2018-03-04T10:33:32.111Z,696.00
2018-03-04T10:34:32.119Z,732.00
2018-03-04T10:35:32.124Z,688.00
2018-03-04T10:36:32.137Z,660.00
2018-03-04T10:37:32.133Z,628.00
2018-03-04T10:38:32.140Z,632.00
2018-03-04T10:39:32.144Z,632.00
2018-03-04T10:40:32.148Z,572.00
2018-03-04T10:41:32.154Z,552.00
2018-03-04T10:42:32.161Z,544.00
2018-03-04T10:43:32.163Z,564.00
2018-03-04T10:44:32.170Z,560.00
2018-03-04T10:45:32.177Z,572.00
2018-03-04T10:46:32.181Z,568.00
2018-03-04T10:47:32.186Z,576.00
2018-03-04T10:48:32.192Z,636.00
2018-03-04T10:49:32.197Z,716.00
2018-03-04T10:50:32.204Z,804.00
2018-03-04T10:51:32.209Z,800.00
2018-03-04T10:52:32.213Z,768.00
2018-03-04T10:53:32.220Z,668.00
2018-03-04T10:54:32.225Z,616.00
2018-03-04T10:55:32.230Z,660.00
2018-03-04T10:56:32.235Z,700.00
2018-03-04T10:57:32.242Z,688.00
2018-03-04T10:58:32.248Z,672.00
2018-03-04T10:59:32.252Z,640.00
2018-03-04T11:00:32.259Z,568.00
2018-03-04T11:01:32.267Z,540.00
2018-03-04T11:02:32.271Z,528.00
2018-03-04T11:03:32.274Z,496.00
2018-03-04T11:04:32.281Z,460.00
2018-03-04T11:05:32.290Z,496.00
2018-03-04T11:06:32.293Z,544.00
2018-03-04T11:07:32.297Z,524.00
2018-03-04T11:08:32.307Z,528.00
2018-03-04T11:09:32.309Z,588.00
2018-03-04T11:10:32.315Z,612.00
2018-03-04T11:11:32.354Z,612.00
2018-03-04T11:12:32.325Z,672.00
2018-03-04T11:13:32.333Z,756.00
2018-03-04T11:14:32.338Z,712.00
2018-03-04T11:15:32.344Z,732.00
2018-03-04T11:16:32.348Z,748.00
2018-03-04T11:17:32.366Z,720.00
2018-03-04T11:18:32.361Z,632.00
2018-03-04T11:19:32.365Z,568.00
2018-03-04T11:20:32.398Z,620.00
2018-03-04T11:21:32.379Z,704.00
2018-03-04T11:22:32.384Z,720.00
2018-03-04T11:23:32.394Z,640.00
2018-03-04T11:24:32.395Z,540.00
2018-03-04T11:25:32.401Z,632.00
2018-03-04T11:26:32.438Z,732.00
2018-03-04T11:27:32.412Z,744.00
2018-03-04T11:28:32.454Z,752.00
2018-03-04T11:29:32.425Z,676.00
2018-03-04T11:30:32.431Z,648.00
2018-03-04T11:31:32.436Z,736.00
2018-03-04T11:32:32.443Z,680.00
2018-03-04T11:33:32.449Z,584.00
2018-03-04T11:34:32.454Z,544.00
2018-03-04T11:35:32.460Z,568.00
2018-03-04T11:36:32.466Z,688.00
2018-03-04T11:37:32.480Z,760.00
2018-03-04T11:38:32.477Z,896.00
2018-03-04T11:39:32.489Z,872.00
2018-03-04T11:40:32.489Z,796.00
2018-03-04T11:41:32.495Z,772.00
2018-03-04T11:42:32.502Z,688.00
2018-03-04T11:43:32.506Z,640.00
2018-03-04T11:44:32.513Z,612.00
2018-03-04T11:45:32.520Z,560.00
2018-03-04T11:46:32.526Z,532.00
2018-03-04T11:47:32.531Z,456.00
2018-03-04T11:48:32.539Z,440.00
2018-03-04T11:49:32.543Z,480.00
2018-03-04T11:50:32.549Z,564.00
2018-03-04T11:51:32.554Z,632.00
2018-03-04T11:52:32.562Z,648.00
2018-03-04T11:53:32.568Z,640.00
2018-03-04T11:54:32.573Z,800.00
2018-03-04T11:55:32.581Z,732.00
2018-03-04T11:56:32.584Z,1084.00
2018-03-04T11:57:32.592Z,1052.00
2018-03-04T11:58:32.599Z,948.00
2018-03-04T11:59:32.604Z,908.00
2018-03-04T12:00:32.609Z,964.00
2018-03-04T12:01:32.615Z,1004.00
2018-03-04T12:02:32.623Z,1036.00
2018-03-04T12:03:32.630Z,960.00
2018-03-04T12:04:32.635Z,844.00
2018-03-04T12:05:32.641Z,740.00
2018-03-04T12:06:32.648Z,760.00
2018-03-04T12:07:32.657Z,780.00
2018-03-04T12:08:32.660Z,696.00
2018-03-04T12:09:32.728Z,700.00
2018-03-04T12:10:32.674Z,628.00
2018-03-04T12:11:32.680Z,488.00
2018-03-04T12:12:32.689Z,492.00
2018-03-04T12:13:32.694Z,564.00
2018-03-04T12:14:32.699Z,636.00
2018-03-04T12:15:32.707Z,764.00
2018-03-04T12:16:32.712Z,756.00
2018-03-04T12:17:32.718Z,904.00
2018-03-04T12:18:32.725Z,988.00
2018-03-04T12:19:32.731Z,1184.00
2018-03-04T12:20:32.736Z,1264.00
2018-03-04T12:21:32.744Z,1280.00
2018-03-04T12:22:32.752Z,1236.00
2018-03-04T12:23:32.757Z,1136.00
2018-03-04T12:24:32.764Z,976.00
2018-03-04T12:25:32.770Z,904.00
2018-03-04T12:26:32.778Z,812.00
2018-03-04T12:27:32.784Z,792.00
2018-03-04T12:28:32.791Z,864.00
2018-03-04T12:29:32.798Z,916.00
2018-03-04T12:30:32.805Z,948.00
2018-03-04T12:31:32.814Z,1052.00
2018-03-04T12:32:32.818Z,944.00
2018-03-04T12:33:32.824Z,888.00
2018-03-04T12:34:32.832Z,944.00
2018-03-04T12:35:32.837Z,956.00
2018-03-04T12:36:32.844Z,1096.00
2018-03-04T12:37:32.850Z,1428.00
2018-03-04T12:38:32.857Z,1196.00
2018-03-04T12:39:32.862Z,2196.00
2018-03-04T12:40:32.870Z,1964.00
2018-03-04T12:41:32.875Z,1816.00
2018-03-04T12:42:32.883Z,3584.00
2018-03-04T12:43:32.890Z,2920.00
2018-03-04T12:44:32.896Z,1592.00
2018-03-04T12:45:32.904Z,1008.00
2018-03-04T12:46:32.910Z,628.00
2018-03-04T12:47:32.946Z,560.00
2018-03-04T12:48:32.932Z,668.00
2018-03-04T12:49:32.931Z,812.00
2018-03-04T12:50:32.936Z,1132.00
2018-03-04T12:51:32.984Z,1484.00
2018-03-04T12:52:32.951Z,1300.00
2018-03-04T12:53:32.957Z,1200.00
2018-03-04T12:54:33.081Z,1264.00